| time (UTC) | temp C | wind direction | speed KPH | gust KPH | rain 1hr cm | rain 24hr cm | rain mn cm | humidity % | barometer mb |
| 20260505223010 | 18 | 221 | 19.3 | 25.7 | 0.00 | 0.71 | 0.71 | 39 | 1179.3 |
| 20260505222507 | 18 | 300 | 11.3 | 22.5 | 0.00 | 0.71 | 0.71 | 40 | 1179.0 |
| 20260505222002 | 17 | 284 | 24.1 | 29.0 | 0.00 | 0.71 | 0.71 | 42 | 1179.3 |
| 20260505221500 | 18 | 266 | 19.3 | 35.4 | 0.00 | 0.71 | 0.71 | 43 | 1179.4 |
| 20260505220957 | 19 | 284 | 29.0 | 35.4 | 0.00 | 0.71 | 0.71 | 42 | 1179.7 |
| 20260505220454 | 19 | 282 | 14.5 | 29.0 | 0.00 | 0.71 | 0.71 | 42 | 1179.2 |
| 20260505215951 | 18 | 261 | 17.7 | 29.0 | 0.00 | 0.71 | 0.71 | 44 | 1179.6 |
| 20260505215449 | 18 | 298 | 20.9 | 27.4 | 0.00 | 0.71 | 0.71 | 42 | 1179.3 |
| 20260505214947 | 18 | 316 | 14.5 | 37.0 | 0.00 | 0.71 | 0.71 | 42 | 1179.4 |
| 20260505214445 | 17 | 288 | 19.3 | 24.1 | 0.00 | 0.71 | 0.71 | 43 | 1179.8 |
| 20260505213942 | 17 | 278 | 14.5 | 20.9 | 0.00 | 0.71 | 0.71 | 45 | 1179.6 |
| 20260505213439 | 18 | 262 | 19.3 | 25.7 | 0.00 | 0.71 | 0.71 | 45 | 1179.3 |
| 20260505212935 | 18 | 283 | 20.9 | 25.7 | 0.00 | 0.71 | 0.71 | 40 | 1179.6 |
| 20260505212432 | 20 | 270 | 24.1 | 35.4 | 0.00 | 0.71 | 0.71 | 39 | 1179.3 |
| 20260505211928 | 19 | 224 | 17.7 | 24.1 | 0.00 | 0.71 | 0.71 | 36 | 1179.6 |
| 20260505211426 | 19 | 251 | 27.4 | 33.8 | 0.00 | 0.71 | 0.71 | 37 | 1179.7 |
| 20260505210922 | 20 | 289 | 22.5 | 27.4 | 0.00 | 0.71 | 0.71 | 36 | 1180.0 |
| 20260505210423 | 20 | 224 | 14.5 | 25.7 | 0.00 | 0.71 | 0.71 | 39 | 1180.2 |
| 20260505205916 | 18 | 293 | 16.1 | 24.1 | 0.00 | 0.71 | 0.71 | 42 | 1180.2 |
| 20260505205415 | 17 | 298 | 16.1 | 27.4 | 0.00 | 0.71 | 0.71 | 46 | 1180.4 |
| 20260505204911 | 18 | 269 | 24.1 | 29.0 | 0.00 | 0.71 | 0.71 | 44 | 1180.1 |
| 20260505204409 | 18 | 277 | 19.3 | 25.7 | 0.00 | 0.71 | 0.71 | 43 | 1180.3 |
| 20260505203906 | 18 | 290 | 17.7 | 20.9 | 0.00 | 0.71 | 0.71 | 44 | 1180.2 |
| 20260505203402 | 18 | 288 | 20.9 | 25.7 | 0.00 | 0.71 | 0.71 | 42 | 1180.3 |
| 20260505202859 | 18 | 274 | 24.1 | 32.2 | 0.00 | 0.71 | 0.71 | 41 | 1180.4 |
| 20260505202355 | 20 | 219 | 25.7 | 37.0 | 0.00 | 0.71 | 0.71 | 32 | 1180.3 |
| 20260505201852 | 18 | 282 | 20.9 | 35.4 | 0.00 | 0.71 | 0.71 | 40 | 1180.2 |
| 20260505201349 | 18 | 234 | 25.7 | 43.5 | 0.00 | 0.71 | 0.71 | 36 | 1180.3 |
| 20260505200847 | 18 | 226 | 29.0 | 33.8 | 0.00 | 0.71 | 0.71 | 36 | 1180.4 |
| 20260505200344 | 18 | 239 | 33.8 | 38.6 | 0.00 | 0.71 | 0.71 | 37 | 1180.4 |
| 20260505195839 | 18 | 243 | 16.1 | 32.2 | 0.00 | 0.71 | 0.71 | 40 | 1180.3 |
| 20260505195337 | 18 | 239 | 17.7 | 24.1 | 0.00 | 0.71 | 0.71 | 42 | 1180.4 |
| 20260505194834 | 17 | 286 | 19.3 | 25.7 | 0.00 | 0.71 | 0.71 | 44 | 1180.4 |
| 20260505194331 | 18 | 294 | 19.3 | 29.0 | 0.00 | 0.71 | 0.71 | 43 | 1180.4 |
| 20260505193826 | 18 | 247 | 22.5 | 40.2 | 0.00 | 0.71 | 0.71 | 43 | 1180.5 |
| 20260505193325 | 18 | 235 | 22.5 | 33.8 | 0.00 | 0.71 | 0.71 | 44 | 1180.5 |
| 20260505192822 | 18 | 234 | 19.3 | 25.7 | 0.00 | 0.71 | 0.71 | 43 | 1180.7 |
| 20260505192320 | 18 | 218 | 19.3 | 27.4 | 0.00 | 0.71 | 0.71 | 46 | 1180.9 |
| 20260505191818 | 18 | 203 | 14.5 | 22.5 | 0.00 | 0.71 | 0.71 | 51 | 1181.2 |
| 20260505191316 | 17 | 266 | 17.7 | 25.7 | 0.00 | 0.71 | 0.71 | 52 | 1181.0 |
| 20260505190812 | 18 | 216 | 20.9 | 32.2 | 0.00 | 0.71 | 0.71 | 50 | 1181.2 |
| 20260505190308 | 17 | 237 | 12.9 | 25.7 | 0.00 | 0.71 | 0.71 | 51 | 1181.4 |
| 20260505185804 | 17 | 192 | 11.3 | 20.9 | 0.00 | 0.71 | 0.71 | 52 | 1181.6 |
| 20260505185300 | 17 | 214 | 19.3 | 24.1 | 0.00 | 0.71 | 0.71 | 53 | 1181.8 |
| 20260505184756 | 17 | 223 | 14.5 | 22.5 | 0.00 | 0.71 | 0.71 | 54 | 1181.5 |
| 20260505184254 | 17 | 250 | 16.1 | 24.1 | 0.00 | 0.71 | 0.71 | 55 | 1181.6 |
| 20260505183751 | 17 | 232 | 11.3 | 17.7 | 0.00 | 0.71 | 0.71 | 58 | 1181.8 |
| 20260505183248 | 17 | 254 | 11.3 | 22.5 | 0.00 | 0.71 | 0.71 | 55 | 1181.4 |
| 20260505182744 | 17 | 199 | 8.0 | 16.1 | 0.00 | 0.71 | 0.71 | 52 | 1181.4 |
| 20260505182241 | 17 | 198 | 3.2 | 9.7 | 0.00 | 0.71 | 0.71 | 59 | 1181.5 |
| 20260505181737 | 17 | 323 | 6.4 | 14.5 | 0.00 | 0.71 | 0.71 | 55 | 1181.6 |
| 20260505181235 | 17 | 285 | 11.3 | 16.1 | 0.00 | 0.71 | 0.71 | 59 | 1182.0 |
| 20260505180731 | 17 | 207 | 8.0 | 12.9 | 0.00 | 0.71 | 0.71 | 58 | 1181.8 |
| 20260505180228 | 16 | 266 | 12.9 | 16.1 | 0.00 | 0.71 | 0.71 | 61 | 1181.9 |
| 20260505175724 | 16 | 304 | 11.3 | 16.1 | 0.00 | 0.71 | 0.71 | 66 | 1182.0 |
| 20260505175221 | 15 | 31 | 1.6 | 8.0 | 0.00 | 0.71 | 0.71 | 74 | 1182.0 |
| 20260505174718 | 15 | 301 | 9.7 | 12.9 | 0.00 | 0.71 | 0.71 | 62 | 1181.9 |
| 20260505174215 | 16 | 266 | 8.0 | 9.7 | 0.00 | 0.71 | 0.71 | 61 | 1181.9 |
| 20260505173711 | 15 | 262 | 14.5 | 22.5 | 0.00 | 0.71 | 0.71 | 66 | 1181.8 |
| 20260505173208 | 16 | 225 | 3.2 | 9.7 | 0.00 | 0.71 | 0.71 | 62 | 1182.0 |
| 20260505172705 | 16 | 327 | 4.8 | 9.7 | 0.00 | 0.71 | 0.71 | 61 | 1181.6 |
| 20260505172202 | 16 | 254 | 14.5 | 22.5 | 0.00 | 0.71 | 0.71 | 61 | 1181.5 |
| 20260505171701 | 16 | 249 | 6.4 | 16.1 | 0.00 | 0.71 | 0.71 | 61 | 1181.5 |
| 20260505171159 | 16 | 265 | 8.0 | 12.9 | 0.00 | 0.71 | 0.71 | 63 | 1181.9 |
| 20260505170655 | 15 | 259 | 12.9 | 17.7 | 0.00 | 0.71 | 0.71 | 66 | 1181.5 |
| 20260505170152 | 15 | 254 | 17.7 | 20.9 | 0.00 | 0.71 | 0.71 | 67 | 1181.8 |
| 20260505165652 | 15 | 226 | 11.3 | 14.5 | 0.00 | 0.71 | 0.71 | 68 | 1181.5 |
| 20260505165148 | 15 | 256 | 11.3 | 22.5 | 0.00 | 0.71 | 0.71 | 68 | 1181.9 |
| 20260505164644 | 14 | 278 | 9.7 | 24.1 | 0.00 | 0.71 | 0.71 | 71 | 1181.6 |
| 20260505164142 | 14 | 280 | 12.9 | 17.7 | 0.00 | 0.71 | 0.71 | 72 | 1181.9 |
| 20260505163640 | 14 | 296 | 14.5 | 16.1 | 0.00 | 0.71 | 0.71 | 71 | 1182.0 |
| 20260505163138 | 14 | 281 | 11.3 | 12.9 | 0.00 | 0.71 | 0.71 | 76 | 1181.9 |
| 20260505162635 | 14 | 244 | 9.7 | 14.5 | 0.00 | 0.71 | 0.71 | 74 | 1181.8 |
| 20260505162132 | 15 | 253 | 11.3 | 16.1 | 0.00 | 0.71 | 0.71 | 72 | 1182.0 |
| 20260505161629 | 15 | 237 | 9.7 | 16.1 | 0.00 | 0.71 | 0.71 | 71 | 1181.5 |
| 20260505161126 | 14 | 229 | 11.3 | 14.5 | 0.00 | 0.71 | 0.71 | 72 | 1181.8 |
| 20260505160624 | 13 | 255 | 11.3 | 12.9 | 0.00 | 0.71 | 0.71 | 73 | 1181.9 |
| 20260505160121 | 13 | 240 | 11.3 | 17.7 | 0.00 | 0.71 | 0.71 | 73 | 1181.9 |
| 20260505153101 | 13 | 230 | 20.9 | 22.5 | 0.00 | 0.71 | 0.71 | 74 | 1181.8 |
| 20260505152557 | 13 | 253 | 14.5 | 17.7 | 0.00 | 0.71 | 0.71 | 77 | 1181.6 |
| 20260505152053 | 13 | 293 | 8.0 | 12.9 | 0.00 | 0.71 | 0.71 | 78 | 1182.0 |
| 20260505151548 | 13 | 219 | 16.1 | 20.9 | 0.00 | 0.71 | 0.71 | 80 | 1181.6 |
| 20260505151046 | 13 | 253 | 11.3 | 12.9 | 0.00 | 0.71 | 0.71 | 81 | 1181.8 |
| 20260505150542 | 13 | 220 | 9.7 | 14.5 | 0.00 | 0.71 | 0.71 | 81 | 1181.6 |
| 20260505140508 | 11 | 103 | 0.0 | 1.6 | 0.00 | 0.69 | 0.69 | 94 | 1181.6 |
| 20260505124921 | 10 | 147 | 4.8 | 8.0 | 0.30 | 0.61 | 0.61 | 94 | 1181.0 |
| 20260505124418 | 10 | 145 | 3.2 | 4.8 | 0.36 | 0.58 | 0.58 | 94 | 1180.9 |
| 20260505123914 | 10 | 159 | 6.4 | 4.8 | 0.30 | 0.56 | 0.56 | 94 | 1181.0 |
| 20260505123411 | 11 | 126 | 1.6 | 1.6 | 0.30 | 0.53 | 0.53 | 94 | 1180.6 |
| 20260505122906 | 11 | 140 | 6.4 | 8.0 | 0.18 | 0.51 | 0.51 | 94 | 1181.0 |
| 20260505122404 | 11 | 145 | 4.8 | 9.7 | 0.13 | 0.48 | 0.48 | 94 | 1181.1 |
| 20260505121900 | 11 | 138 | 6.4 | 8.0 | 0.13 | 0.48 | 0.48 | 94 | 1181.1 |
| 20260505121358 | 11 | 130 | 3.2 | 3.2 | 0.18 | 0.46 | 0.46 | 94 | 1181.0 |
| 20260505120853 | 11 | 74 | 1.6 | 1.6 | 0.30 | 0.46 | 0.46 | 94 | 1181.0 |
| 20260505120350 | 11 | 73 | 1.6 | 1.6 | 0.13 | 0.43 | 0.43 | 94 | 1181.2 |
| 20260505115848 | 11 | 90 | 0.0 | 1.6 | 0.18 | 0.41 | 0.41 | 94 | 1181.2 |
| 20260505115346 | 11 | 91 | 3.2 | 4.8 | 0.13 | 0.38 | 0.38 | 94 | 1181.4 |
| 20260505114844 | 11 | 103 | 1.6 | 1.6 | 0.30 | 0.38 | 0.38 | 94 | 1181.6 |
| 20260505114340 | 11 | 146 | 3.2 | 8.0 | 0.13 | 0.33 | 0.33 | 94 | 1181.4 |
| 20260505113836 | 11 | 108 | 1.6 | 4.8 | 0.13 | 0.33 | 0.33 | 93 | 1181.2 |
| 20260505113333 | 11 | 133 | 1.6 | 4.8 | 0.00 | 0.30 | 0.30 | 93 | 1181.1 |
| 20260505112828 | 11 | 116 | 0.0 | 1.6 | 0.18 | 0.30 | 0.30 | 93 | 1181.4 |
| 20260505112326 | 11 | 110 | 6.4 | 11.3 | 0.00 | 0.28 | 0.28 | 92 | 1181.2 |
| 20260505111822 | 11 | 100 | 4.8 | 9.7 | 0.00 | 0.28 | 0.28 | 90 | 1181.3 |
| 20260505111317 | 11 | 169 | 9.7 | 12.9 | 0.00 | 0.28 | 0.28 | 84 | 1181.4 |
| 20260505110814 | 11 | 248 | 9.7 | 12.9 | 0.00 | 0.28 | 0.28 | 85 | 1181.1 |
| 20260505110311 | 11 | 272 | 8.0 | 11.3 | 0.00 | 0.28 | 0.28 | 85 | 1181.2 |
| 20260505101746 | 11 | 272 | 8.0 | 11.3 | 0.13 | 0.25 | 0.25 | 88 | 1181.9 |
| 20260505101241 | 11 | 262 | 8.0 | 12.9 | 0.18 | 0.23 | 0.23 | 88 | 1182.4 |
| 20260505100738 | 11 | 246 | 9.7 | 9.7 | 0.30 | 0.23 | 0.23 | 88 | 1182.3 |
| 20260505100235 | 11 | 250 | 8.0 | 12.9 | 0.30 | 0.20 | 0.20 | 88 | 1182.6 |
| 20260505095730 | 11 | 250 | 8.0 | 11.3 | 0.30 | 0.18 | 0.18 | 89 | 1182.6 |
| 20260505095228 | 11 | 264 | 9.7 | 14.5 | 0.30 | 0.15 | 0.15 | 88 | 1182.6 |
| 20260505094723 | 11 | 290 | 12.9 | 17.7 | 0.18 | 0.13 | 0.13 | 87 | 1182.6 |
| 20260505094220 | 11 | 248 | 12.9 | 20.9 | 0.13 | 0.10 | 0.10 | 87 | 1182.6 |
| 20260505093716 | 11 | 249 | 9.7 | 14.5 | 0.13 | 0.10 | 0.10 | 87 | 1182.8 |
| 20260505093214 | 11 | 248 | 12.9 | 20.9 | 0.00 | 0.08 | 0.08 | 85 | 1182.8 |
| 20260505092710 | 11 | 268 | 11.3 | 17.7 | 0.18 | 0.08 | 0.08 | 84 | 1182.8 |
| 20260505092210 | 11 | 262 | 17.7 | 24.1 | 0.18 | 0.08 | 0.08 | 85 | 1182.6 |
| 20260505091706 | 11 | 231 | 11.3 | 16.1 | 0.00 | 0.05 | 0.05 | 86 | 1182.9 |
| 20260505091204 | 11 | 236 | 14.5 | 22.5 | 0.00 | 0.05 | 0.05 | 86 | 1182.9 |
| 20260505090701 | 11 | 256 | 16.1 | 20.9 | 0.00 | 0.05 | 0.05 | 85 | 1182.7 |
| 20260505090200 | 11 | 223 | 14.5 | 20.9 | 0.00 | 0.05 | 0.05 | 85 | 1182.9 |
| 20260505085657 | 11 | 231 | 14.5 | 24.1 | 0.13 | 0.05 | 0.05 | 85 | 1182.9 |
| 20260505085155 | 11 | 263 | 20.9 | 29.0 | 0.13 | 0.05 | 0.05 | 85 | 1183.0 |
| 20260505084652 | 11 | 220 | 17.7 | 25.7 | 0.00 | 0.03 | 0.03 | 84 | 1183.1 |
| 20260505084150 | 12 | 236 | 24.1 | 25.7 | 0.00 | 0.03 | 0.03 | 83 | 1183.0 |
| 20260505083647 | 12 | 238 | 17.7 | 27.4 | 0.18 | 0.03 | 0.03 | 82 | 1183.2 |
| 20260505083144 | 12 | 245 | 17.7 | 24.1 | 0.18 | 0.03 | 0.03 | 82 | 1183.3 |
| 20260505082640 | 12 | 263 | 19.3 | 24.1 | 0.00 | 0.00 | 0.00 | 81 | 1183.5 |
| 20260505082137 | 12 | 251 | 14.5 | 22.5 | 0.00 | 0.00 | 0.00 | 81 | 1183.6 |
| 20260505081633 | 12 | 250 | 19.3 | 25.7 | 0.00 | 0.00 | 0.00 | 79 | 1183.6 |
| 20260505081131 | 12 | 258 | 19.3 | 27.4 | 0.00 | 0.00 | 0.00 | 78 | 1183.5 |
| 20260505080627 | 12 | 238 | 17.7 | 27.4 | 0.00 | 0.00 | 0.00 | 76 | 1183.5 |
| 20260505080123 | 12 | 290 | 19.3 | 32.2 | 0.00 | 0.00 | 0.00 | 73 | 1183.3 |
| 20260505075620 | 13 | 246 | 24.1 | 33.8 | 0.00 | 0.00 | 0.00 | 73 | 1183.3 |
| 20260505075116 | 13 | 253 | 22.5 | 29.0 | 0.00 | 0.00 | 0.00 | 71 | 1183.6 |
| 20260505074613 | 13 | 253 | 29.0 | 32.2 | 0.00 | 0.00 | 0.00 | 70 | 1183.0 |
| 20260505074110 | 13 | 264 | 25.7 | 29.0 | 0.00 | 0.00 | 0.00 | 70 | 1183.2 |
| 20260505073608 | 13 | 268 | 19.3 | 32.2 | 0.00 | 0.00 | 0.00 | 70 | 1183.5 |
| 20260505073106 | 13 | 251 | 17.7 | 24.1 | 0.00 | 0.00 | 0.00 | 70 | 1183.3 |
| 20260505072601 | 13 | 253 | 20.9 | 27.4 | 0.00 | 0.00 | 0.00 | 69 | 1183.5 |
| 20260505072058 | 13 | 273 | 22.5 | 27.4 | 0.00 | 0.00 | 0.00 | 69 | 1183.5 |
| 20260505071554 | 13 | 262 | 14.5 | 22.5 | 0.00 | 0.00 | 0.00 | 69 | 1183.3 |
| 20260505071052 | 13 | 253 | 17.7 | 22.5 | 0.00 | 0.00 | 0.00 | 68 | 1183.6 |
| 20260505070549 | 13 | 248 | 12.9 | 17.7 | 0.00 | 0.00 | 0.00 | 68 | 1183.6 |
| 20260505070045 | 14 | 264 | 16.1 | 20.9 | 0.00 | 0.05 | 0.05 | 65 | 1183.7 |
| 20260505065541 | 14 | 256 | 22.5 | 27.4 | 0.00 | 0.05 | 0.05 | 62 | 1183.5 |
| 20260505065038 | 15 | 293 | 19.3 | 20.9 | 0.00 | 0.05 | 0.05 | 60 | 1183.5 |
| 20260505064534 | 15 | 302 | 19.3 | 25.7 | 0.00 | 0.05 | 0.05 | 61 | 1183.6 |
| 20260505064033 | 14 | 255 | 6.4 | 11.3 | 0.00 | 0.05 | 0.05 | 63 | 1183.6 |
| 20260505063530 | 14 | 262 | 11.3 | 20.9 | 0.00 | 0.05 | 0.05 | 62 | 1183.5 |
| 20260505063026 | 14 | 279 | 12.9 | 20.9 | 0.00 | 0.05 | 0.05 | 65 | 1183.5 |
| 20260505062523 | 13 | 277 | 14.5 | 24.1 | 0.00 | 0.05 | 0.05 | 67 | 1183.2 |
| 20260505062020 | 13 | 276 | 14.5 | 20.9 | 0.00 | 0.05 | 0.05 | 68 | 1183.3 |
| 20260505061517 | 13 | 242 | 8.0 | 9.7 | 0.00 | 0.05 | 0.05 | 71 | 1183.2 |
| 20260505061015 | 13 | 238 | 4.8 | 9.7 | 0.00 | 0.05 | 0.05 | 69 | 1183.5 |
| 20260505060512 | 13 | 280 | 8.0 | 17.7 | 0.00 | 0.05 | 0.05 | 68 | 1183.9 |
| 20260505060009 | 14 | 288 | 8.0 | 14.5 | 0.00 | 0.05 | 0.05 | 68 | 1183.8 |
| 20260505055504 | 14 | 279 | 17.7 | 22.5 | 0.00 | 0.05 | 0.05 | 67 | 1183.9 |
| 20260505055001 | 13 | 282 | 17.7 | 24.1 | 0.00 | 0.05 | 0.05 | 68 | 1183.7 |
| 20260505054458 | 13 | 273 | 11.3 | 17.7 | 0.00 | 0.05 | 0.05 | 69 | 1183.7 |
| 20260505053956 | 14 | 295 | 17.7 | 22.5 | 0.00 | 0.05 | 0.05 | 69 | 1183.8 |
| 20260505053453 | 13 | 263 | 16.1 | 20.9 | 0.00 | 0.05 | 0.05 | 69 | 1183.8 |
| 20260505052950 | 14 | 277 | 11.3 | 25.7 | 0.00 | 0.05 | 0.05 | 69 | 1183.8 |
| 20260505052447 | 13 | 281 | 12.9 | 14.5 | 0.00 | 0.05 | 0.05 | 71 | 1183.5 |
| 20260505051944 | 13 | 290 | 14.5 | 20.9 | 0.00 | 0.05 | 0.05 | 74 | 1183.3 |
| 20260505051441 | 13 | 270 | 19.3 | 24.1 | 0.00 | 0.05 | 0.05 | 75 | 1183.1 |
| 20260505050939 | 13 | 261 | 22.5 | 25.7 | 0.00 | 0.05 | 0.05 | 75 | 1183.0 |
| 20260505050437 | 13 | 259 | 20.9 | 27.4 | 0.00 | 0.05 | 0.05 | 75 | 1183.0 |
| 20260505041405 | 13 | 235 | 11.3 | 16.1 | 0.00 | 0.05 | 0.05 | 74 | 1183.6 |
| 20260505040902 | 13 | 238 | 17.7 | 24.1 | 0.00 | 0.05 | 0.05 | 74 | 1183.7 |
| 20260505040359 | 13 | 260 | 22.5 | 25.7 | 0.00 | 0.05 | 0.05 | 75 | 1183.9 |
| 20260505035856 | 13 | 262 | 16.1 | 20.9 | 0.00 | 0.05 | 0.05 | 75 | 1183.9 |
| 20260505035352 | 13 | 250 | 16.1 | 22.5 | 0.00 | 0.05 | 0.05 | 77 | 1184.1 |
| 20260505034849 | 13 | 277 | 11.3 | 14.5 | 0.00 | 0.05 | 0.05 | 78 | 1183.7 |
| 20260505034346 | 13 | 250 | 14.5 | 17.7 | 0.00 | 0.05 | 0.05 | 77 | 1183.9 |
| 20260505033843 | 13 | 239 | 12.9 | 17.7 | 0.00 | 0.05 | 0.05 | 78 | 1184.1 |
| 20260505033339 | 13 | 237 | 16.1 | 25.7 | 0.00 | 0.05 | 0.05 | 76 | 1184.3 |
| 20260505032838 | 12 | 270 | 12.9 | 22.5 | 0.13 | 0.05 | 0.05 | 77 | 1184.1 |
| 20260505032334 | 12 | 235 | 12.9 | 16.1 | 0.13 | 0.05 | 0.05 | 79 | 1184.3 |
| 20260505031831 | 12 | 249 | 16.1 | 20.9 | 0.00 | 0.03 | 0.03 | 78 | 1183.9 |
| 20260505031327 | 12 | 258 | 14.5 | 20.9 | 0.00 | 0.03 | 0.03 | 79 | 1183.9 |
| 20260505030825 | 12 | 237 | 20.9 | 25.7 | 0.00 | 0.03 | 0.03 | 78 | 1183.9 |
| 20260505030321 | 12 | 261 | 19.3 | 25.7 | 0.00 | 0.03 | 0.03 | 79 | 1183.8 |
| 20260505025816 | 12 | 235 | 22.5 | 24.1 | 0.00 | 0.03 | 0.03 | 77 | 1183.6 |
| 20260505025315 | 12 | 289 | 17.7 | 29.0 | 0.00 | 0.03 | 0.03 | 76 | 1183.7 |
| 20260505024813 | 13 | 245 | 20.9 | 25.7 | 0.18 | 0.03 | 0.03 | 73 | 1183.8 |
| 20260505024310 | 13 | 242 | 25.7 | 29.0 | 0.18 | 0.03 | 0.03 | 70 | 1183.5 |
| 20260505023807 | 13 | 265 | 17.7 | 27.4 | 0.00 | 0.00 | 0.00 | 70 | 1183.7 |
| 20260505023304 | 13 | 245 | 16.1 | 24.1 | 0.00 | 0.00 | 0.00 | 67 | 1183.9 |
| 20260505022801 | 14 | 260 | 19.3 | 22.5 | 0.00 | 0.00 | 0.00 | 63 | 1183.6 |
| 20260505022258 | 14 | 246 | 16.1 | 24.1 | 0.00 | 0.00 | 0.00 | 62 | 1183.7 |
| 20260505021755 | 14 | 244 | 19.3 | 27.4 | 0.00 | 0.00 | 0.00 | 59 | 1183.5 |
| 20260505021252 | 15 | 252 | 16.1 | 27.4 | 0.00 | 0.00 | 0.00 | 57 | 1183.0 |
| 20260505020748 | 15 | 251 | 25.7 | 33.8 | 0.00 | 0.00 | 0.00 | 52 | 1183.1 |
| 20260505020243 | 16 | 255 | 19.3 | 27.4 | 0.00 | 0.00 | 0.00 | 49 | 1183.1 |
| 20260505015740 | 16 | 237 | 19.3 | 29.0 | 0.00 | 0.00 | 0.00 | 45 | 1182.7 |
| 20260505015237 | 16 | 249 | 22.5 | 32.2 | 0.00 | 0.00 | 0.00 | 44 | 1182.8 |
| 20260505014734 | 16 | 262 | 22.5 | 27.4 | 0.00 | 0.00 | 0.00 | 44 | 1182.7 |
| 20260505014232 | 16 | 260 | 25.7 | 32.2 | 0.00 | 0.00 | 0.00 | 43 | 1182.6 |
| 20260505013728 | 16 | 247 | 27.4 | 35.4 | 0.00 | 0.00 | 0.00 | 43 | 1182.6 |
| 20260505013225 | 16 | 262 | 24.1 | 32.2 | 0.00 | 0.00 | 0.00 | 42 | 1182.4 |
| 20260505012724 | 16 | 225 | 20.9 | 37.0 | 0.00 | 0.00 | 0.00 | 42 | 1182.4 |
| 20260505012221 | 16 | 235 | 33.8 | 38.6 | 0.00 | 0.00 | 0.00 | 42 | 1182.3 |
| 20260505011716 | 16 | 225 | 22.5 | 33.8 | 0.00 | 0.00 | 0.00 | 42 | 1182.7 |
| 20260505011214 | 16 | 243 | 25.7 | 29.0 | 0.00 | 0.00 | 0.00 | 42 | 1182.8 |
| 20260505010709 | 16 | 228 | 24.1 | 29.0 | 0.00 | 0.00 | 0.00 | 43 | 1182.8 |
| 20260505010206 | 16 | 247 | 22.5 | 25.7 | 0.00 | 0.00 | 0.00 | 41 | 1182.9 |
| 20260505005702 | 16 | 259 | 24.1 | 33.8 | 0.00 | 0.00 | 0.00 | 40 | 1183.2 |
| 20260505005159 | 16 | 264 | 30.6 | 43.5 | 0.00 | 0.00 | 0.00 | 40 | 1183.1 |
| 20260505004656 | 17 | 235 | 33.8 | 49.9 | 0.00 | 0.00 | 0.00 | 39 | 1183.2 |
| 20260505004153 | 17 | 258 | 30.6 | 40.2 | 0.00 | 0.00 | 0.00 | 37 | 1183.1 |
| 20260505003650 | 17 | 299 | 24.1 | 37.0 | 0.00 | 0.00 | 0.00 | 37 | 1183.1 |
| 20260505003147 | 17 | 270 | 32.2 | 40.2 | 0.00 | 0.00 | 0.00 | 35 | 1182.9 |
| 20260505002643 | 17 | 292 | 30.6 | 35.4 | 0.00 | 0.00 | 0.00 | 34 | 1183.1 |
| 20260505002142 | 18 | 277 | 20.9 | 35.4 | 0.00 | 0.00 | 0.00 | 34 | 1182.9 |
| 20260505001638 | 18 | 246 | 32.2 | 41.8 | 0.00 | 0.00 | 0.00 | 32 | 1182.8 |
| 20260505001136 | 18 | 277 | 22.5 | 46.7 | 0.00 | 0.00 | 0.00 | 31 | 1183.0 |
| 20260505000633 | 18 | 289 | 29.0 | 41.8 | 0.00 | 0.00 | 0.00 | 31 | 1182.9 |
| 20260505000131 | 18 | 278 | 35.4 | 41.8 | 0.00 | 0.00 | 0.00 | 30 | 1183.0 |
| 20260504235627 | 19 | 292 | 24.1 | 46.7 | 0.00 | 0.00 | 0.00 | 30 | 1183.0 |
| 20260504235124 | 19 | 288 | 29.0 | 37.0 | 0.00 | 0.00 | 0.00 | 28 | 1183.0 |
| 20260504234621 | 20 | 300 | 27.4 | 43.5 | 0.00 | 0.00 | 0.00 | 28 | 1183.0 |
| 20260504234118 | 20 | 285 | 33.8 | 41.8 | 0.00 | 0.00 | 0.00 | 27 | 1182.7 |
| 20260504233614 | 20 | 351 | 25.7 | 35.4 | 0.00 | 0.00 | 0.00 | 26 | 1182.4 |
| 20260504233110 | 20 | 307 | 38.6 | 49.9 | 0.00 | 0.00 | 0.00 | 26 | 1182.4 |
| 20260504232607 | 20 | 339 | 29.0 | 38.6 | 0.00 | 0.00 | 0.00 | 26 | 1182.4 |
| 20260504232105 | 20 | 311 | 40.2 | 41.8 | 0.00 | 0.00 | 0.00 | 26 | 1182.3 |
| 20260504231601 | 21 | 276 | 22.5 | 37.0 | 0.00 | 0.00 | 0.00 | 26 | 1182.3 |
| 20260504231057 | 21 | 283 | 35.4 | 41.8 | 0.00 | 0.00 | 0.00 | 27 | 1182.4 |
| 20260504230553 | 21 | 320 | 25.7 | 32.2 | 0.00 | 0.00 | 0.00 | 28 | 1182.4 |
| 20260504230053 | 21 | 114 | 24.1 | 35.4 | 0.00 | 0.00 | 0.00 | 27 | 1182.4 |
| 20260504225549 | 21 | 341 | 27.4 | 35.4 | 0.00 | 0.00 | 0.00 | 27 | 1182.3 |
| 20260504225046 | 20 | 237 | 16.1 | 20.9 | 0.00 | 0.00 | 0.00 | 28 | 1182.8 |
| 20260504224543 | 21 | 341 | 32.2 | 46.7 | 0.00 | 0.00 | 0.00 | 28 | 1182.8 |
| 20260504224040 | 22 | 260 | 30.6 | 43.5 | 0.00 | 0.00 | 0.00 | 24 | 1183.1 |
| 20260504223537 | 21 | 289 | 29.0 | 33.8 | 0.00 | 0.00 | 0.00 | 23 | 1182.8 |